Frederiksberg, Denmark
Current Conditions -  °F | °C
As of 10:50 PM on Wednesday 28 Jan 2015 (Local Time) from EKCH Reporting Station
Broken Clouds Broken Clouds  
Wind Chill: 27°   Ceiling: 1200
Heat Index: 37°   Visibility: 6mi
Dew Point: 36°   Wind: 21mph
Humidity: 93%   Direction: 210°SSW
Pressure: 28.94"   Gusts: NA
Location:  55.68°N, 12.53°E
Report Text: EKCH 282150Z 21018KT 9999 SCT009 BKN012 03/02 Q0980 RERATEMPO BKN009
Loading
Personal Weather Stations






























Interactive Weather Map New forecast layout! Learn more

10-Day Weather Forecast

Advertisements
Track Severe Weather on mobile